createdAt,value
2018-01-15T11:35:42.115Z,23.47
2018-01-15T11:36:42.011Z,23.47
2018-01-15T11:37:41.988Z,23.53
2018-01-15T11:38:41.977Z,23.49
2018-01-15T11:39:41.979Z,23.42
2018-01-15T11:40:41.975Z,23.54
2018-01-15T11:41:41.964Z,23.54
2018-01-15T11:42:41.965Z,23.57
2018-01-15T11:43:41.980Z,23.53
2018-01-15T11:44:41.957Z,23.54
2018-01-15T11:45:41.965Z,23.53
2018-01-15T11:46:41.941Z,23.62
2018-01-15T11:47:41.963Z,23.59
2018-01-15T11:48:42.103Z,23.71
2018-01-15T11:49:41.955Z,23.77
2018-01-15T11:50:41.950Z,23.75
2018-01-15T11:51:41.946Z,23.84
2018-01-15T11:52:41.942Z,23.93
2018-01-15T11:53:41.933Z,24.06
2018-01-15T11:54:41.934Z,24.18
2018-01-15T11:55:41.933Z,24.26
2018-01-15T11:56:41.926Z,24.29
2018-01-15T11:57:41.917Z,24.23
2018-01-15T11:58:41.911Z,24.18
2018-01-15T11:59:42.254Z,24.15
2018-01-15T12:00:41.911Z,24.05
2018-01-15T12:01:41.901Z,24.14
2018-01-15T12:02:41.902Z,24.14
2018-01-15T12:03:41.893Z,24.21
2018-01-15T12:04:41.890Z,24.14
2018-01-15T12:05:41.885Z,24.18
2018-01-15T12:06:41.887Z,24.26
2018-01-15T12:07:41.883Z,24.34
2018-01-15T12:08:41.922Z,24.29
2018-01-15T12:09:41.876Z,24.31
2018-01-15T12:10:41.871Z,24.41
2018-01-15T12:11:41.868Z,24.44
2018-01-15T12:12:41.865Z,24.21
2018-01-15T12:13:41.861Z,24.23
2018-01-15T12:14:41.857Z,24.33
2018-01-15T12:15:41.847Z,24.41
2018-01-15T12:16:41.830Z,24.29
2018-01-15T12:17:41.847Z,24.29
2018-01-15T12:18:41.836Z,24.29
2018-01-15T12:19:41.833Z,24.33
2018-01-15T12:20:41.817Z,24.34
2018-01-15T12:21:41.832Z,24.49
2018-01-15T12:22:41.809Z,24.48
2018-01-15T12:23:41.799Z,24.31
2018-01-15T12:24:41.802Z,24.42
2018-01-15T12:25:41.798Z,24.41
2018-01-15T12:26:41.795Z,24.51
2018-01-15T12:27:41.791Z,24.63
2018-01-15T12:28:41.786Z,24.74
2018-01-15T12:29:41.784Z,24.67
2018-01-15T12:30:41.781Z,24.74
2018-01-15T12:31:41.777Z,24.82
2018-01-15T12:32:41.774Z,24.71
2018-01-15T12:33:41.771Z,24.80
2018-01-15T12:34:41.766Z,24.79
2018-01-15T12:35:41.768Z,24.70
2018-01-15T12:36:41.761Z,24.67
2018-01-15T12:37:41.756Z,24.66
2018-01-15T12:38:41.759Z,24.67
2018-01-15T12:39:41.750Z,24.71
2018-01-15T12:40:41.747Z,24.53
2018-01-15T12:41:41.754Z,24.56
2018-01-15T12:42:41.739Z,24.56
2018-01-15T12:43:41.752Z,24.56
2018-01-15T12:44:41.734Z,24.55
2018-01-15T12:45:41.735Z,24.51
2018-01-15T12:46:41.734Z,24.55
2018-01-15T12:47:41.825Z,24.63
2018-01-15T12:48:41.724Z,24.46
2018-01-15T12:49:41.720Z,24.46
2018-01-15T12:50:41.705Z,24.49
2018-01-15T12:51:41.728Z,24.53
2018-01-15T12:52:41.706Z,24.49
2018-01-15T12:53:41.722Z,24.52
2018-01-15T12:54:41.702Z,24.52
2018-01-15T12:55:41.716Z,24.60
2018-01-15T12:56:41.712Z,24.64
2018-01-15T12:57:41.692Z,24.67
2018-01-15T12:58:41.679Z,24.77
2018-01-15T12:59:41.689Z,24.60
2018-01-15T13:00:41.682Z,24.61
2018-01-15T13:01:41.675Z,24.64
2018-01-15T13:02:41.675Z,24.79
2018-01-15T13:03:41.687Z,24.77
2018-01-15T13:04:41.684Z,24.86
2018-01-15T13:05:41.682Z,24.86
2018-01-15T13:06:41.677Z,24.80
2018-01-15T13:07:41.653Z,24.74
2018-01-15T13:08:41.651Z,24.89
2018-01-15T13:09:41.654Z,24.92
2018-01-15T13:10:41.648Z,25.01
2018-01-15T13:11:41.656Z,25.05
2018-01-15T13:12:41.660Z,25.12
2018-01-15T13:13:41.650Z,25.09
2018-01-15T13:14:41.648Z,25.12
2018-01-15T13:15:41.633Z,25.14
2018-01-15T13:16:41.630Z,25.07
2018-01-15T13:17:41.627Z,25.08
2018-01-15T13:18:41.619Z,25.11
2018-01-15T13:19:41.631Z,25.12
2018-01-15T13:20:41.613Z,25.02
2018-01-15T13:21:41.615Z,24.98
2018-01-15T13:22:41.611Z,24.89
2018-01-15T13:23:41.604Z,24.82
2018-01-15T13:24:41.606Z,24.74
2018-01-15T13:25:41.603Z,24.74
2018-01-15T13:26:41.594Z,24.80
2018-01-15T13:27:41.590Z,24.83
2018-01-15T13:28:41.589Z,24.94
2018-01-15T13:29:41.590Z,24.99
2018-01-15T13:30:41.586Z,24.98
2018-01-15T13:31:41.594Z,24.99
2018-01-15T13:32:41.576Z,24.94
2018-01-15T13:33:41.578Z,24.94
2018-01-15T13:34:41.585Z,24.92
2018-01-15T13:35:41.567Z,24.90
2018-01-15T13:36:41.583Z,24.87
2018-01-15T13:37:41.561Z,24.93
2018-01-15T13:38:41.572Z,24.89
2018-01-15T13:39:41.558Z,24.97
2018-01-15T13:40:41.567Z,25.04
2018-01-15T13:41:41.550Z,24.99
2018-01-15T13:42:41.564Z,24.90
2018-01-15T13:43:41.561Z,25.05
2018-01-15T13:44:41.554Z,25.11
2018-01-15T13:45:41.541Z,25.14
2018-01-15T13:46:41.536Z,25.29
2018-01-15T13:47:41.534Z,25.35
2018-01-15T13:48:41.531Z,25.39
2018-01-15T13:49:41.540Z,25.46
2018-01-15T13:50:41.525Z,25.46
2018-01-15T13:51:41.533Z,25.64
2018-01-15T13:52:41.535Z,25.56
2018-01-15T13:53:41.518Z,25.60
2018-01-15T13:54:41.533Z,25.72
2018-01-15T13:55:41.511Z,25.57
2018-01-15T13:56:41.509Z,25.54
2018-01-15T13:57:41.507Z,25.69
2018-01-15T13:58:41.509Z,25.67
2018-01-15T13:59:41.517Z,25.36
2018-01-15T14:00:41.499Z,25.16
2018-01-15T14:01:41.497Z,25.08
2018-01-15T14:02:41.504Z,25.01
2018-01-15T14:03:41.491Z,25.12
2018-01-15T14:04:41.489Z,25.05
2018-01-15T14:05:41.485Z,25.07
2018-01-15T14:06:41.497Z,25.09
2018-01-15T14:07:41.494Z,25.29
2018-01-15T14:08:41.493Z,25.51
2018-01-15T14:09:41.475Z,25.36
2018-01-15T14:10:41.487Z,25.49
2018-01-15T14:11:41.483Z,25.51
2018-01-15T14:12:41.461Z,25.57
2018-01-15T14:13:41.463Z,25.46
2018-01-15T14:14:41.455Z,25.48
2018-01-15T14:15:41.472Z,25.59
2018-01-15T14:16:41.454Z,25.66
2018-01-15T14:17:41.448Z,25.79
2018-01-15T14:18:41.448Z,25.90
2018-01-15T14:19:41.461Z,25.79
2018-01-15T14:20:41.443Z,25.79
2018-01-15T14:21:41.437Z,25.79
2018-01-15T14:22:41.454Z,25.89
2018-01-15T14:23:41.451Z,25.90
2018-01-15T14:24:41.453Z,25.67
2018-01-15T14:25:41.431Z,25.71
2018-01-15T14:26:41.439Z,25.81
2018-01-15T14:27:41.425Z,25.82
2018-01-15T14:28:41.434Z,25.86
2018-01-15T14:29:41.436Z,25.97
2018-01-15T14:30:41.418Z,25.91
2018-01-15T14:31:41.430Z,25.97
2018-01-15T14:32:41.410Z,26.00
2018-01-15T14:33:41.407Z,26.03
2018-01-15T14:34:41.459Z,26.06
2018-01-15T14:35:41.448Z,26.01
2018-01-15T14:36:41.404Z,25.86
2018-01-15T14:37:41.503Z,25.78
2018-01-15T14:38:41.410Z,25.89
2018-01-15T14:39:41.414Z,25.93
2018-01-15T14:40:41.410Z,26.04
2018-01-15T14:41:41.393Z,26.04
2018-01-15T14:42:41.401Z,26.17
2018-01-15T14:43:41.388Z,26.09
2018-01-15T14:44:41.386Z,26.08
2018-01-15T14:45:41.388Z,26.08
2018-01-15T14:46:41.395Z,26.09
2018-01-15T14:47:41.382Z,26.16
2018-01-15T14:48:41.373Z,26.20
2018-01-15T14:49:41.390Z,26.27
2018-01-15T14:50:41.372Z,26.39
2018-01-15T14:51:41.470Z,26.42
2018-01-15T14:52:41.381Z,26.21
2018-01-15T14:53:41.381Z,25.98
2018-01-15T14:54:41.378Z,26.19
2018-01-15T14:55:41.377Z,26.19
2018-01-15T14:56:41.375Z,26.29
2018-01-15T14:57:41.369Z,26.35
2018-01-15T14:58:41.349Z,26.50
2018-01-15T14:59:41.353Z,26.46
2018-01-15T15:00:41.367Z,26.61
2018-01-15T15:01:41.361Z,26.68
2018-01-15T15:02:41.362Z,26.68
2018-01-15T15:03:41.346Z,26.61
2018-01-15T15:04:41.340Z,26.65
2018-01-15T15:05:41.354Z,26.68
2018-01-15T15:06:41.336Z,26.96
2018-01-15T15:07:41.349Z,27.16
2018-01-15T15:08:41.334Z,27.33
2018-01-15T15:09:41.351Z,27.23
2018-01-15T15:10:41.334Z,27.21
2018-01-15T15:11:41.347Z,27.23
2018-01-15T15:12:41.342Z,27.21
2018-01-15T15:13:41.326Z,27.25
2018-01-15T15:14:41.324Z,27.46
2018-01-15T15:15:41.321Z,27.42
2018-01-15T15:16:41.327Z,27.42
2018-01-15T15:17:41.322Z,27.34
2018-01-15T15:18:41.334Z,27.09
2018-01-15T15:19:41.337Z,26.81
2018-01-15T15:20:41.317Z,26.87
2018-01-15T15:21:41.335Z,26.87
2018-01-15T15:22:41.314Z,26.73
2018-01-15T15:23:41.313Z,26.72
2018-01-15T15:24:41.329Z,26.79
2018-01-15T15:25:41.314Z,26.93
2018-01-15T15:26:41.328Z,27.06
2018-01-15T15:27:41.311Z,26.81
2018-01-15T15:28:41.325Z,26.87
2018-01-15T15:29:41.304Z,26.94
2018-01-15T15:30:41.306Z,27.01
2018-01-15T15:31:41.301Z,27.03
2018-01-15T15:32:41.304Z,27.01
2018-01-15T15:33:41.321Z,27.15
2018-01-15T15:34:41.312Z,27.06
2018-01-15T15:35:41.300Z,26.94
2018-01-15T15:36:41.295Z,26.90
2018-01-15T15:37:41.298Z,26.84
2018-01-15T15:38:41.296Z,26.86
2018-01-15T15:39:41.294Z,26.87
2018-01-15T15:40:41.289Z,26.87
2018-01-15T15:41:41.307Z,26.86
2018-01-15T15:42:41.305Z,26.90
2018-01-15T15:43:41.288Z,27.08
2018-01-15T15:44:41.302Z,27.31
2018-01-15T15:45:41.286Z,27.39
2018-01-15T15:46:41.295Z,27.52
2018-01-15T15:47:41.294Z,27.66
2018-01-15T15:48:41.282Z,27.62
2018-01-15T15:49:41.281Z,27.72
2018-01-15T15:50:41.279Z,27.71
2018-01-15T15:51:41.274Z,27.83
2018-01-15T15:52:41.288Z,27.76
2018-01-15T15:53:41.292Z,27.77
2018-01-15T15:54:41.290Z,27.78
2018-01-15T15:55:41.289Z,27.91
2018-01-15T15:56:41.289Z,27.99
2018-01-15T15:57:41.288Z,28.08
2018-01-15T15:58:41.282Z,27.84
2018-01-15T15:59:41.286Z,27.65
2018-01-15T16:00:41.270Z,27.66
2018-01-15T16:01:41.285Z,27.66
2018-01-15T16:02:41.384Z,27.74
2018-01-15T16:03:41.267Z,27.76
2018-01-15T16:04:41.282Z,27.72
2018-01-15T16:05:41.279Z,27.90
2018-01-15T16:06:41.265Z,27.81
2018-01-15T16:07:41.264Z,27.71
2018-01-15T16:08:41.279Z,27.66
2018-01-15T16:09:41.263Z,27.68
2018-01-15T16:10:41.277Z,27.55
2018-01-15T16:11:41.276Z,27.58
2018-01-15T16:12:41.271Z,27.74
2018-01-15T16:13:41.262Z,27.86
2018-01-15T16:14:41.253Z,27.91
2018-01-15T16:15:41.268Z,27.95
2018-01-15T16:16:41.267Z,28.11
2018-01-15T16:17:41.252Z,28.13
2018-01-15T16:18:41.269Z,28.08
2018-01-15T16:19:41.254Z,28.11
2018-01-15T16:20:41.254Z,28.15
2018-01-15T16:21:41.268Z,28.28
2018-01-15T16:22:41.266Z,28.30
2018-01-15T16:23:41.267Z,28.32
2018-01-15T16:24:41.267Z,28.28
2018-01-15T16:25:41.245Z,28.43
2018-01-15T16:26:41.248Z,28.51
2018-01-15T16:27:41.248Z,28.57
2018-01-15T16:28:41.259Z,28.46
2018-01-15T16:29:41.263Z,28.48
2018-01-15T16:30:41.247Z,28.48
2018-01-15T16:31:41.243Z,28.54
2018-01-15T16:32:41.247Z,28.38
2018-01-15T16:33:41.261Z,28.40
2018-01-15T16:34:41.260Z,28.39
2018-01-15T16:35:41.260Z,28.46
2018-01-15T16:36:41.246Z,28.67
2018-01-15T16:37:41.259Z,28.77
2018-01-15T16:38:41.259Z,28.82
2018-01-15T16:39:41.239Z,28.64
2018-01-15T16:40:41.243Z,28.51
2018-01-15T16:41:41.237Z,28.51
2018-01-15T16:42:41.248Z,28.33
2018-01-15T16:43:41.253Z,28.25
2018-01-15T16:44:41.257Z,28.25
2018-01-15T16:45:41.257Z,28.28
2018-01-15T16:46:41.241Z,28.09
2018-01-15T16:47:41.240Z,28.15
2018-01-15T16:48:41.240Z,28.09
2018-01-15T16:49:41.245Z,28.28
2018-01-15T16:50:41.238Z,28.18
2018-01-15T16:51:41.253Z,28.23
2018-01-15T16:52:41.253Z,28.18
2018-01-15T16:53:41.252Z,28.28
2018-01-15T16:54:41.236Z,28.25
2018-01-15T16:55:41.235Z,28.27
2018-01-15T16:56:41.246Z,28.23
2018-01-15T16:57:41.234Z,28.27
2018-01-15T16:58:41.257Z,28.25
2018-01-15T16:59:41.244Z,28.32
2018-01-15T17:00:41.251Z,28.32
2018-01-15T17:01:41.251Z,28.32
2018-01-15T17:02:41.237Z,28.46
2018-01-15T17:03:41.229Z,28.42
2018-01-15T17:04:41.226Z,28.43
2018-01-15T17:05:41.230Z,28.46
2018-01-15T17:06:41.247Z,28.42
2018-01-15T17:07:41.223Z,28.58
2018-01-15T17:08:41.227Z,28.67
2018-01-15T17:09:41.226Z,28.64
2018-01-15T17:10:41.221Z,28.69
2018-01-15T17:11:41.244Z,28.57
2018-01-15T17:12:41.244Z,28.57
2018-01-15T17:13:41.244Z,28.38
2018-01-15T17:14:41.243Z,28.42
2018-01-15T17:15:41.226Z,28.46
2018-01-15T17:16:41.242Z,28.62
2018-01-15T17:17:41.223Z,28.65
2018-01-15T17:18:41.220Z,28.73
2018-01-15T17:19:41.240Z,28.82
2018-01-15T17:20:41.220Z,28.77
2018-01-15T17:21:41.216Z,28.73
2018-01-15T17:22:41.219Z,28.91
2018-01-15T17:23:41.235Z,29.00
2018-01-15T17:24:41.238Z,28.95
2018-01-15T17:25:41.238Z,28.94
2018-01-15T17:26:41.233Z,29.07
2018-01-15T17:27:41.234Z,29.14
2018-01-15T17:28:41.233Z,29.17
2018-01-15T17:29:41.237Z,29.21
2018-01-15T17:30:41.237Z,29.21
2018-01-15T17:31:41.233Z,29.36
2018-01-15T17:32:41.229Z,29.30
2018-01-15T17:33:41.237Z,29.36
2018-01-15T17:34:41.236Z,29.35
2018-01-15T17:35:41.233Z,29.49
2018-01-15T17:36:41.233Z,29.45
2018-01-15T17:37:41.233Z,29.57
2018-01-15T17:38:41.232Z,29.39
2018-01-15T17:39:41.240Z,29.42
2018-01-15T17:40:41.238Z,29.54
2018-01-15T17:41:41.234Z,29.55
2018-01-15T17:42:41.233Z,29.51
2018-01-15T17:43:41.234Z,29.54
2018-01-15T17:44:41.230Z,29.42
2018-01-15T17:45:41.235Z,29.27
2018-01-15T17:46:41.238Z,29.20
2018-01-15T17:47:41.239Z,28.89
2018-01-15T17:48:41.235Z,28.83
2018-01-15T17:49:41.236Z,28.73
2018-01-15T17:50:41.234Z,28.89
2018-01-15T17:51:41.239Z,28.95
2018-01-15T17:52:41.236Z,29.00
2018-01-15T17:53:41.235Z,28.95
2018-01-15T17:54:41.241Z,28.98
2018-01-15T17:55:41.235Z,29.17
2018-01-15T17:56:41.231Z,29.20
2018-01-15T17:57:41.234Z,29.23
2018-01-15T17:58:41.219Z,29.17
2018-01-15T17:59:41.239Z,29.18
2018-01-15T18:00:41.235Z,29.18
2018-01-15T18:01:41.240Z,29.17
2018-01-15T18:02:41.215Z,29.20
2018-01-15T18:03:41.235Z,29.05
2018-01-15T18:04:41.237Z,29.02
2018-01-15T18:05:41.220Z,29.11
2018-01-15T18:06:41.239Z,29.12
2018-01-15T18:07:41.214Z,29.08
2018-01-15T18:08:41.220Z,28.95
2018-01-15T18:09:41.216Z,28.97
2018-01-15T18:10:41.244Z,29.00
2018-01-15T18:11:41.223Z,29.02
2018-01-15T18:12:41.239Z,28.97
2018-01-15T18:13:41.234Z,29.07
2018-01-15T18:14:41.218Z,29.03
2018-01-15T18:15:41.215Z,29.10
2018-01-15T18:16:41.239Z,29.23
2018-01-15T18:17:41.219Z,29.20
2018-01-15T18:18:41.238Z,29.29
2018-01-15T18:19:41.215Z,29.29
2018-01-15T18:20:41.219Z,29.29
2018-01-15T18:21:41.239Z,29.32
2018-01-15T18:22:41.219Z,29.33
2018-01-15T18:23:41.216Z,29.44
2018-01-15T18:24:41.220Z,29.45
2018-01-15T18:25:41.220Z,29.36
2018-01-15T18:26:41.239Z,29.33
2018-01-15T18:27:41.220Z,29.48
2018-01-15T18:28:41.220Z,29.48
2018-01-15T18:29:41.221Z,29.54
2018-01-15T18:30:41.240Z,29.52
2018-01-15T18:31:41.217Z,29.51
2018-01-15T18:32:41.218Z,29.52
2018-01-15T18:33:41.223Z,29.49
2018-01-15T18:34:41.240Z,29.48
2018-01-15T18:35:41.222Z,29.42
2018-01-15T18:36:41.237Z,29.35
2018-01-15T18:37:41.242Z,29.42
2018-01-15T18:38:41.223Z,29.42
2018-01-15T18:39:41.242Z,29.45
2018-01-15T18:40:41.243Z,29.42
2018-01-15T18:41:41.243Z,29.42
2018-01-15T18:42:41.220Z,29.44
2018-01-15T18:43:41.224Z,29.41
2018-01-15T18:44:41.245Z,29.49
2018-01-15T18:45:41.240Z,29.42
2018-01-15T18:46:41.225Z,29.47
2018-01-15T18:47:41.221Z,29.48
2018-01-15T18:48:41.268Z,29.49
2018-01-15T18:49:41.242Z,29.45
2018-01-15T18:50:41.223Z,29.45
2018-01-15T18:51:41.222Z,29.42
2018-01-15T18:52:41.243Z,29.44
2018-01-15T18:53:41.231Z,29.49
2018-01-15T18:54:41.243Z,29.49
2018-01-15T18:55:41.240Z,29.48
2018-01-15T18:56:41.244Z,29.39
2018-01-15T18:57:41.229Z,29.08
2018-01-15T18:58:41.229Z,28.97
2018-01-15T18:59:41.241Z,28.95
2018-01-15T19:00:41.242Z,28.97
2018-01-15T19:01:41.246Z,28.94
2018-01-15T19:02:41.230Z,29.07
2018-01-15T19:03:41.246Z,29.18
2018-01-15T19:04:41.248Z,29.41
2018-01-15T19:05:41.246Z,29.26
2018-01-15T19:06:41.242Z,29.29
2018-01-15T19:07:41.244Z,29.27
2018-01-15T19:08:41.247Z,29.39
2018-01-15T19:09:41.248Z,29.37
2018-01-15T19:10:41.247Z,29.29
2018-01-15T19:11:41.228Z,29.37
2018-01-15T19:12:41.243Z,29.18
2018-01-15T19:13:41.244Z,29.20
2018-01-15T19:14:41.276Z,29.29
2018-01-15T19:15:41.243Z,29.27
2018-01-15T19:16:41.229Z,29.42
2018-01-15T19:17:41.244Z,29.48
2018-01-15T19:18:41.229Z,29.63
2018-01-15T19:19:41.229Z,29.63
2018-01-15T19:20:41.229Z,29.67
2018-01-15T19:21:41.232Z,29.76
2018-01-15T19:22:41.230Z,29.73
2018-01-15T19:23:41.231Z,29.78
2018-01-15T19:24:41.232Z,29.71
2018-01-15T19:25:41.236Z,29.79
2018-01-15T19:26:41.236Z,29.92
2018-01-15T19:27:41.235Z,29.71
2018-01-15T19:28:41.238Z,29.63
2018-01-15T19:29:41.234Z,29.62
2018-01-15T19:30:41.234Z,29.66
2018-01-15T19:31:41.240Z,29.74
2018-01-15T19:32:41.236Z,29.64
2018-01-15T19:33:41.240Z,29.76
2018-01-15T19:34:41.236Z,29.76
2018-01-15T19:35:41.237Z,29.74
2018-01-15T19:36:41.238Z,29.76
2018-01-15T19:37:41.239Z,29.84
2018-01-15T19:38:41.243Z,29.86
2018-01-15T19:39:41.240Z,29.82
2018-01-15T19:40:41.245Z,29.78
2018-01-15T19:41:41.242Z,29.51
2018-01-15T19:42:41.243Z,29.54
2018-01-15T19:43:41.242Z,29.49
2018-01-15T19:44:41.246Z,29.48
2018-01-15T19:45:41.244Z,29.48
2018-01-15T19:46:41.247Z,29.51
2018-01-15T19:47:41.248Z,29.54
2018-01-15T19:48:41.244Z,29.55
2018-01-15T19:49:41.245Z,29.54
2018-01-15T19:50:41.245Z,29.48
2018-01-15T19:51:41.249Z,29.51
2018-01-15T19:52:41.247Z,29.45
2018-01-15T19:53:41.251Z,29.42
2018-01-15T19:54:41.246Z,29.45
2018-01-15T19:55:41.247Z,29.45
2018-01-15T19:56:41.248Z,29.39
2018-01-15T19:57:41.252Z,29.41
2018-01-15T19:58:41.248Z,29.27
2018-01-15T19:59:41.248Z,29.32
2018-01-15T20:00:41.249Z,29.27
2018-01-15T20:01:41.249Z,29.33
2018-01-15T20:02:41.249Z,29.30
2018-01-15T20:03:41.249Z,29.30
2018-01-15T20:04:41.249Z,29.27
2018-01-15T20:05:41.250Z,29.33
2018-01-15T20:06:41.249Z,29.26
2018-01-15T20:07:41.253Z,29.33
2018-01-15T20:08:41.248Z,29.29
2018-01-15T20:09:41.251Z,29.39
2018-01-15T20:10:41.250Z,29.41
2018-01-15T20:11:41.257Z,29.42
2018-01-15T20:12:41.250Z,29.39
2018-01-15T20:13:41.255Z,29.41
2018-01-15T20:14:41.271Z,29.45
2018-01-15T20:15:41.256Z,29.36
2018-01-15T20:16:41.267Z,29.41
2018-01-15T20:17:41.357Z,29.41
2018-01-15T20:18:41.252Z,29.45
2018-01-15T20:19:41.252Z,29.45
2018-01-15T20:20:41.265Z,29.48
2018-01-15T20:21:41.258Z,29.42
2018-01-15T20:22:41.251Z,29.41
2018-01-15T20:23:41.253Z,29.41
2018-01-15T20:24:41.284Z,29.39
2018-01-15T20:25:41.254Z,29.47
2018-01-15T20:26:41.274Z,29.45
2018-01-15T20:27:41.258Z,29.37
2018-01-15T20:28:41.270Z,29.47
2018-01-15T20:29:41.274Z,29.41
2018-01-15T20:30:41.311Z,29.44
2018-01-15T20:31:41.275Z,29.41
2018-01-15T20:32:41.275Z,29.42
2018-01-15T20:33:41.275Z,29.35
2018-01-15T20:34:41.271Z,29.37
2018-01-15T20:35:41.281Z,29.23
2018-01-15T20:36:41.280Z,29.15
2018-01-15T20:37:41.272Z,29.05
2018-01-15T20:38:41.276Z,28.97
2018-01-15T20:39:41.276Z,28.95
2018-01-15T20:40:41.277Z,28.92
2018-01-15T20:41:41.281Z,28.95
2018-01-15T20:46:10.982Z,28.98
2018-01-15T20:47:10.988Z,28.89
2018-01-15T20:48:10.984Z,28.98
2018-01-15T20:49:10.985Z,28.98
2018-01-15T20:50:10.989Z,28.92
2018-01-15T20:51:10.984Z,28.91
2018-01-15T20:52:10.988Z,28.82
2018-01-15T20:53:10.984Z,28.89
2018-01-15T20:54:10.965Z,28.98
2018-01-15T20:55:10.988Z,28.94
2018-01-15T20:56:10.964Z,28.94
2018-01-15T20:57:10.987Z,28.89
2018-01-15T20:58:10.991Z,28.88
2018-01-15T20:59:11.088Z,28.94
2018-01-15T21:00:10.983Z,28.92
2018-01-15T21:01:10.967Z,28.92
2018-01-15T21:02:10.973Z,28.85
2018-01-15T21:03:10.970Z,28.88
2018-01-15T21:04:10.968Z,28.85
2018-01-15T21:05:10.962Z,28.72
2018-01-15T21:06:10.963Z,28.72
2018-01-15T21:07:10.965Z,28.67
2018-01-15T21:08:10.968Z,28.70
2018-01-15T21:09:10.966Z,28.69
2018-01-15T21:10:10.965Z,28.70
2018-01-15T21:11:10.964Z,28.79
2018-01-15T21:12:10.960Z,28.73
2018-01-15T21:13:10.960Z,28.69
2018-01-15T21:14:10.960Z,28.64
2018-01-15T21:15:10.963Z,28.62
2018-01-15T21:16:10.958Z,28.57
2018-01-15T21:17:10.958Z,28.61
2018-01-15T21:18:10.962Z,28.57
2018-01-15T21:19:10.957Z,28.51
2018-01-15T21:20:10.960Z,28.50
2018-01-15T21:21:10.956Z,28.51
2018-01-15T21:22:10.956Z,28.48
2018-01-15T21:23:10.965Z,28.45
2018-01-15T21:24:10.960Z,28.42
2018-01-15T21:25:10.974Z,28.42
2018-01-15T21:26:10.969Z,28.38
2018-01-15T21:27:10.974Z,28.35
2018-01-15T21:28:10.957Z,28.39
2018-01-15T21:29:10.957Z,28.33
2018-01-15T21:30:10.952Z,28.33
2018-01-15T21:31:10.970Z,28.33
2018-01-15T21:32:10.951Z,28.30
2018-01-15T21:33:10.969Z,28.23
2018-01-15T21:34:10.970Z,28.23
2018-01-15T21:35:10.948Z,28.27
2018-01-15T21:36:10.963Z,28.25
2018-01-15T21:37:10.951Z,28.27
2018-01-15T21:38:10.950Z,28.25
2018-01-15T21:39:10.945Z,28.28
2018-01-15T21:40:10.945Z,28.21
2018-01-15T21:41:10.953Z,28.15
2018-01-15T21:42:10.963Z,28.17
2018-01-15T21:43:10.957Z,28.05
2018-01-15T21:44:10.957Z,28.09
2018-01-15T21:45:10.962Z,28.08
2018-01-15T21:46:10.945Z,28.05
2018-01-15T21:47:10.943Z,28.08
2018-01-15T21:48:10.958Z,28.08
2018-01-15T21:49:10.938Z,27.99
2018-01-15T21:50:11.010Z,28.01
2018-01-15T21:51:10.951Z,28.01
2018-01-15T21:52:10.954Z,27.96
2018-01-15T21:53:10.939Z,27.98
2018-01-15T21:54:10.934Z,27.96
2018-01-15T21:55:10.932Z,27.93
2018-01-15T21:56:10.935Z,27.95
2018-01-15T21:57:10.930Z,27.99
2018-01-15T21:58:10.949Z,28.01
2018-01-15T21:59:11.028Z,27.93
2018-01-15T22:00:10.927Z,27.99
2018-01-15T22:01:10.926Z,27.96
2018-01-15T22:02:11.246Z,27.95
2018-01-15T22:03:10.923Z,27.87
2018-01-15T22:04:10.939Z,27.93
2018-01-15T22:05:10.927Z,27.95
2018-01-15T22:06:10.937Z,27.83
2018-01-15T22:07:10.936Z,27.86
2018-01-15T22:08:10.931Z,27.84
2018-01-15T22:09:10.924Z,27.93
2018-01-15T22:10:10.918Z,27.88
2018-01-15T22:11:10.917Z,27.83
2018-01-15T22:12:10.920Z,27.88
2018-01-15T22:13:10.915Z,27.77
2018-01-15T22:14:10.930Z,27.78
2018-01-15T22:15:10.928Z,27.80
2018-01-15T22:16:10.927Z,27.78
2018-01-15T22:17:10.928Z,27.74
2018-01-15T22:18:10.930Z,27.72
2018-01-15T22:19:10.924Z,27.84
2018-01-15T22:20:10.923Z,27.74
2018-01-15T22:21:10.922Z,27.78
2018-01-15T22:22:10.926Z,27.80
2018-01-15T22:23:10.919Z,27.74
2018-01-15T22:24:10.923Z,27.78
2018-01-15T22:25:10.923Z,27.74
2018-01-15T22:26:10.917Z,27.78
2018-01-15T22:27:10.919Z,27.74
2018-01-15T22:28:10.919Z,27.71
2018-01-15T22:29:10.913Z,27.77
2018-01-15T22:30:10.917Z,27.76
2018-01-15T22:31:10.916Z,27.72
2018-01-15T22:32:10.910Z,27.71
2018-01-15T22:33:10.910Z,27.74
2018-01-15T22:34:10.908Z,27.77
2018-01-15T22:35:10.906Z,27.77
2018-01-15T22:36:10.910Z,27.76
2018-01-15T22:37:10.905Z,27.72
2018-01-15T22:38:10.907Z,27.61
2018-01-15T22:39:10.902Z,27.61
2018-01-15T22:40:10.901Z,27.61
2018-01-15T22:41:10.900Z,27.62
2018-01-15T22:42:10.899Z,27.71
2018-01-15T22:43:10.902Z,27.68
2018-01-15T22:44:10.896Z,27.62
2018-01-15T22:45:10.896Z,27.63
2018-01-15T22:46:10.895Z,27.62
2018-01-15T22:47:10.898Z,27.65
2018-01-15T22:48:10.896Z,27.61
2018-01-15T22:49:10.891Z,27.59
2018-01-15T22:50:10.918Z,27.62
2018-01-15T22:51:10.892Z,27.61
2018-01-15T22:52:10.887Z,27.55
2018-01-15T22:53:10.890Z,27.61
2018-01-15T22:54:10.885Z,27.62
2018-01-15T22:55:10.889Z,27.62
2018-01-15T22:56:10.887Z,27.61
2018-01-15T22:57:10.886Z,27.58
2018-01-15T22:58:10.885Z,27.55
2018-01-15T22:59:10.883Z,27.55
2018-01-15T23:00:10.882Z,27.61
2018-01-15T23:01:10.887Z,27.53
2018-01-15T23:02:10.880Z,27.58
2018-01-15T23:03:10.878Z,27.53
2018-01-15T23:04:10.877Z,27.53
2018-01-15T23:05:10.876Z,27.49
2018-01-15T23:06:10.875Z,27.63
2018-01-15T23:07:10.874Z,27.49
2018-01-15T23:08:10.873Z,27.50
2018-01-15T23:09:10.871Z,27.50
2018-01-15T23:10:10.870Z,27.50
2018-01-15T23:11:10.869Z,27.58
2018-01-15T23:12:10.868Z,27.48
2018-01-15T23:13:10.866Z,27.52
2018-01-15T23:14:10.866Z,27.45
2018-01-15T23:15:10.865Z,27.43
2018-01-15T23:16:10.862Z,27.43
2018-01-15T23:17:10.861Z,27.53
2018-01-15T23:18:10.860Z,27.50
2018-01-15T23:19:10.859Z,27.48
2018-01-15T23:20:10.848Z,27.42
2018-01-15T23:21:10.847Z,27.42
2018-01-15T23:22:10.856Z,27.52
2018-01-15T23:23:10.853Z,27.45
2018-01-15T23:24:10.853Z,27.38
2018-01-15T23:25:10.853Z,27.45
2018-01-15T23:26:10.841Z,27.42
2018-01-15T23:27:10.849Z,27.43
2018-01-15T23:28:10.847Z,27.40
2018-01-15T23:29:10.846Z,27.40
2018-01-15T23:30:10.845Z,27.40
2018-01-15T23:31:10.834Z,27.40
2018-01-15T23:32:10.833Z,27.39
2018-01-15T23:33:10.839Z,27.38
2018-01-15T23:34:10.840Z,27.42
2018-01-15T23:35:10.835Z,27.42
2018-01-15T23:36:10.832Z,27.25
2018-01-15T23:37:10.831Z,27.46
2018-01-15T23:38:10.830Z,27.28
2018-01-15T23:39:10.828Z,27.25
2018-01-15T23:40:10.831Z,27.31
2018-01-15T23:41:10.826Z,27.31
2018-01-15T23:42:10.828Z,27.33
2018-01-15T23:43:10.826Z,27.30
2018-01-15T23:44:10.826Z,27.35
2018-01-15T23:45:10.824Z,27.27
2018-01-15T23:46:10.825Z,27.33
2018-01-15T23:47:10.917Z,27.33
2018-01-15T23:48:10.820Z,27.30
2018-01-15T23:49:10.809Z,27.27
2018-01-15T23:50:10.814Z,27.28
2018-01-15T23:51:10.815Z,27.30
2018-01-15T23:52:10.814Z,27.28
2018-01-15T23:53:10.809Z,27.34
2018-01-15T23:54:10.812Z,27.25
2018-01-15T23:55:10.810Z,27.27
2018-01-15T23:56:10.799Z,27.31
2018-01-15T23:57:10.809Z,27.24
2018-01-15T23:58:10.802Z,27.24
2018-01-15T23:59:10.800Z,27.20
